sensor_id;sensor_type;location;lat;lon;timestamp;P1;durP1;ratioP1;P2;durP2;ratioP2
78838;SDS011;68405;47.190;27.558;2024-01-30T00:02:11;15.10;;;8.40;;
78838;SDS011;68405;47.190;27.558;2024-01-30T00:04:42;15.80;;;8.80;;
78838;SDS011;68405;47.190;27.558;2024-01-30T00:07:14;16.50;;;9.40;;
78838;SDS011;68405;47.190;27.558;2024-01-30T00:09:48;20.30;;;10.70;;
78838;SDS011;68405;47.190;27.558;2024-01-30T00:12:19;15.10;;;7.70;;
78838;SDS011;68405;47.190;27.558;2024-01-30T00:14:51;13.60;;;7.20;;
78838;SDS011;68405;47.190;27.558;2024-01-30T00:17:22;19.20;;;8.30;;
78838;SDS011;68405;47.190;27.558;2024-01-30T00:19:55;19.90;;;9.70;;
78838;SDS011;68405;47.190;27.558;2024-01-30T00:22:28;15.80;;;8.10;;
78838;SDS011;68405;47.190;27.558;2024-01-30T00:25:00;12.70;;;7.10;;
78838;SDS011;68405;47.190;27.558;2024-01-30T00:27:32;15.20;;;7.70;;
78838;SDS011;68405;47.190;27.558;2024-01-30T00:30:04;13.30;;;7.50;;
78838;SDS011;68405;47.190;27.558;2024-01-30T00:32:37;13.40;;;7.20;;
78838;SDS011;68405;47.190;27.558;2024-01-30T00:35:09;15.80;;;8.10;;
78838;SDS011;68405;47.190;27.558;2024-01-30T00:37:43;16.90;;;8.20;;
78838;SDS011;68405;47.190;27.558;2024-01-30T00:40:15;16.60;;;8.90;;
78838;SDS011;68405;47.190;27.558;2024-01-30T00:42:49;16.30;;;7.60;;
78838;SDS011;68405;47.190;27.558;2024-01-30T00:45:20;19.40;;;9.10;;
78838;SDS011;68405;47.190;27.558;2024-01-30T00:47:52;14.90;;;8.40;;
78838;SDS011;68405;47.190;27.558;2024-01-30T00:50:25;14.90;;;7.30;;
78838;SDS011;68405;47.190;27.558;2024-01-30T00:52:57;13.00;;;6.60;;
78838;SDS011;68405;47.190;27.558;2024-01-30T00:55:29;13.30;;;7.20;;
78838;SDS011;68405;47.190;27.558;2024-01-30T00:58:00;12.60;;;7.00;;
78838;SDS011;68405;47.190;27.558;2024-01-30T01:00:33;14.60;;;7.10;;
78838;SDS011;68405;47.190;27.558;2024-01-30T01:03:07;18.10;;;8.60;;
78838;SDS011;68405;47.190;27.558;2024-01-30T01:05:38;13.60;;;6.60;;
78838;SDS011;68405;47.190;27.558;2024-01-30T01:08:10;14.10;;;7.30;;
78838;SDS011;68405;47.190;27.558;2024-01-30T01:10:43;11.60;;;6.50;;
78838;SDS011;68405;47.190;27.558;2024-01-30T01:13:14;16.30;;;6.60;;
78838;SDS011;68405;47.190;27.558;2024-01-30T01:15:49;14.10;;;8.00;;
78838;SDS011;68405;47.190;27.558;2024-01-30T01:18:21;10.40;;;6.10;;
78838;SDS011;68405;47.190;27.558;2024-01-30T01:20:56;13.50;;;7.40;;
78838;SDS011;68405;47.190;27.558;2024-01-30T01:23:28;15.30;;;8.10;;
78838;SDS011;68405;47.190;27.558;2024-01-30T01:26:00;12.90;;;6.90;;
78838;SDS011;68405;47.190;27.558;2024-01-30T01:28:31;11.50;;;6.60;;
78838;SDS011;68405;47.190;27.558;2024-01-30T01:31:03;15.50;;;7.40;;
78838;SDS011;68405;47.190;27.558;2024-01-30T01:33:34;14.00;;;8.40;;
78838;SDS011;68405;47.190;27.558;2024-01-30T01:36:07;13.20;;;7.10;;
78838;SDS011;68405;47.190;27.558;2024-01-30T01:38:39;14.50;;;7.60;;
78838;SDS011;68405;47.190;27.558;2024-01-30T01:41:11;13.20;;;7.30;;
78838;SDS011;68405;47.190;27.558;2024-01-30T01:43:42;14.70;;;7.80;;
78838;SDS011;68405;47.190;27.558;2024-01-30T01:46:14;12.40;;;7.60;;
78838;SDS011;68405;47.190;27.558;2024-01-30T01:48:47;11.50;;;6.60;;
78838;SDS011;68405;47.190;27.558;2024-01-30T01:51:19;13.40;;;7.80;;
78838;SDS011;68405;47.190;27.558;2024-01-30T01:53:51;11.50;;;6.80;;
78838;SDS011;68405;47.190;27.558;2024-01-30T01:56:23;13.90;;;7.60;;
78838;SDS011;68405;47.190;27.558;2024-01-30T01:58:56;16.20;;;7.90;;
78838;SDS011;68405;47.190;27.558;2024-01-30T02:01:34;13.30;;;7.00;;
78838;SDS011;68405;47.190;27.558;2024-01-30T02:04:08;13.90;;;6.90;;
78838;SDS011;68405;47.190;27.558;2024-01-30T02:06:42;12.50;;;6.90;;
78838;SDS011;68405;47.190;27.558;2024-01-30T02:09:14;14.40;;;7.10;;
78838;SDS011;68405;47.190;27.558;2024-01-30T02:11:45;12.50;;;6.90;;
78838;SDS011;68405;47.190;27.558;2024-01-30T02:14:17;14.10;;;7.80;;
78838;SDS011;68405;47.190;27.558;2024-01-30T02:16:49;15.70;;;7.90;;
78838;SDS011;68405;47.190;27.558;2024-01-30T02:19:20;14.40;;;7.30;;
78838;SDS011;68405;47.190;27.558;2024-01-30T02:21:52;13.40;;;7.10;;
78838;SDS011;68405;47.190;27.558;2024-01-30T02:24:24;14.10;;;7.50;;
78838;SDS011;68405;47.190;27.558;2024-01-30T02:26:55;14.20;;;6.60;;
78838;SDS011;68405;47.190;27.558;2024-01-30T02:29:27;15.60;;;7.30;;
78838;SDS011;68405;47.190;27.558;2024-01-30T02:32:00;13.20;;;6.80;;
78838;SDS011;68405;47.190;27.558;2024-01-30T02:34:32;15.90;;;9.30;;
78838;SDS011;68405;47.190;27.558;2024-01-30T02:37:04;14.90;;;7.30;;
78838;SDS011;68405;47.190;27.558;2024-01-30T02:39:36;11.90;;;6.20;;
78838;SDS011;68405;47.190;27.558;2024-01-30T02:42:08;14.10;;;6.20;;
78838;SDS011;68405;47.190;27.558;2024-01-30T02:44:39;9.90;;;5.60;;
78838;SDS011;68405;47.190;27.558;2024-01-30T02:47:11;12.40;;;6.40;;
78838;SDS011;68405;47.190;27.558;2024-01-30T02:49:43;11.10;;;6.20;;
78838;SDS011;68405;47.190;27.558;2024-01-30T02:52:14;12.20;;;6.10;;
78838;SDS011;68405;47.190;27.558;2024-01-30T02:54:47;10.50;;;5.70;;
78838;SDS011;68405;47.190;27.558;2024-01-30T02:57:21;12.40;;;5.90;;
78838;SDS011;68405;47.190;27.558;2024-01-30T02:59:53;8.80;;;5.70;;
78838;SDS011;68405;47.190;27.558;2024-01-30T03:02:25;12.00;;;6.30;;
78838;SDS011;68405;47.190;27.558;2024-01-30T03:04:57;10.10;;;5.50;;
78838;SDS011;68405;47.190;27.558;2024-01-30T03:07:29;8.40;;;4.60;;
78838;SDS011;68405;47.190;27.558;2024-01-30T03:10:00;11.10;;;5.30;;
78838;SDS011;68405;47.190;27.558;2024-01-30T03:12:34;8.40;;;4.70;;
78838;SDS011;68405;47.190;27.558;2024-01-30T03:15:06;9.80;;;4.90;;
78838;SDS011;68405;47.190;27.558;2024-01-30T03:17:39;8.60;;;4.30;;
78838;SDS011;68405;47.190;27.558;2024-01-30T03:20:11;8.10;;;4.60;;
78838;SDS011;68405;47.190;27.558;2024-01-30T03:22:44;6.30;;;3.60;;
78838;SDS011;68405;47.190;27.558;2024-01-30T03:25:16;7.50;;;4.70;;
78838;SDS011;68405;47.190;27.558;2024-01-30T03:27:48;11.60;;;5.60;;
78838;SDS011;68405;47.190;27.558;2024-01-30T03:30:20;7.90;;;5.10;;
78838;SDS011;68405;47.190;27.558;2024-01-30T03:32:52;11.30;;;6.00;;
78838;SDS011;68405;47.190;27.558;2024-01-30T03:35:23;9.40;;;5.00;;
78838;SDS011;68405;47.190;27.558;2024-01-30T03:37:55;10.00;;;5.30;;
78838;SDS011;68405;47.190;27.558;2024-01-30T03:40:30;11.20;;;5.60;;
78838;SDS011;68405;47.190;27.558;2024-01-30T03:43:02;6.30;;;4.00;;
78838;SDS011;68405;47.190;27.558;2024-01-30T03:45:34;7.40;;;4.00;;
78838;SDS011;68405;47.190;27.558;2024-01-30T03:48:08;7.90;;;5.00;;
78838;SDS011;68405;47.190;27.558;2024-01-30T03:50:39;7.80;;;4.50;;
78838;SDS011;68405;47.190;27.558;2024-01-30T03:53:11;8.10;;;5.00;;
78838;SDS011;68405;47.190;27.558;2024-01-30T03:55:43;10.70;;;5.60;;
78838;SDS011;68405;47.190;27.558;2024-01-30T03:58:15;8.20;;;4.70;;
78838;SDS011;68405;47.190;27.558;2024-01-30T04:00:46;8.30;;;4.30;;
78838;SDS011;68405;47.190;27.558;2024-01-30T04:03:18;8.10;;;4.30;;
78838;SDS011;68405;47.190;27.558;2024-01-30T04:05:53;6.30;;;4.10;;
78838;SDS011;68405;47.190;27.558;2024-01-30T04:08:25;7.10;;;4.80;;
78838;SDS011;68405;47.190;27.558;2024-01-30T04:10:56;7.20;;;4.70;;
78838;SDS011;68405;47.190;27.558;2024-01-30T04:13:28;7.40;;;4.30;;
78838;SDS011;68405;47.190;27.558;2024-01-30T04:16:00;8.70;;;4.40;;
78838;SDS011;68405;47.190;27.558;2024-01-30T04:18:32;8.10;;;4.30;;
78838;SDS011;68405;47.190;27.558;2024-01-30T04:21:04;7.80;;;4.50;;
78838;SDS011;68405;47.190;27.558;2024-01-30T04:23:35;7.30;;;3.50;;
78838;SDS011;68405;47.190;27.558;2024-01-30T04:26:09;6.80;;;4.20;;
78838;SDS011;68405;47.190;27.558;2024-01-30T04:28:43;9.70;;;5.00;;
78838;SDS011;68405;47.190;27.558;2024-01-30T04:31:15;5.40;;;3.60;;
78838;SDS011;68405;47.190;27.558;2024-01-30T04:33:49;6.30;;;3.00;;
78838;SDS011;68405;47.190;27.558;2024-01-30T04:36:21;5.70;;;3.60;;
78838;SDS011;68405;47.190;27.558;2024-01-30T04:38:52;8.20;;;3.50;;
78838;SDS011;68405;47.190;27.558;2024-01-30T04:41:24;6.00;;;3.40;;
78838;SDS011;68405;47.190;27.558;2024-01-30T04:46:29;4.80;;;2.90;;
78838;SDS011;68405;47.190;27.558;2024-01-30T04:49:03;7.60;;;3.90;;
78838;SDS011;68405;47.190;27.558;2024-01-30T04:51:35;5.30;;;3.40;;
78838;SDS011;68405;47.190;27.558;2024-01-30T04:54:07;7.00;;;3.70;;
78838;SDS011;68405;47.190;27.558;2024-01-30T04:56:39;6.60;;;4.10;;
78838;SDS011;68405;47.190;27.558;2024-01-30T04:59:11;5.90;;;3.70;;
78838;SDS011;68405;47.190;27.558;2024-01-30T05:01:43;8.00;;;4.40;;
78838;SDS011;68405;47.190;27.558;2024-01-30T05:04:15;7.30;;;3.40;;
78838;SDS011;68405;47.190;27.558;2024-01-30T05:06:47;7.40;;;3.70;;
78838;SDS011;68405;47.190;27.558;2024-01-30T05:09:19;7.90;;;4.10;;
78838;SDS011;68405;47.190;27.558;2024-01-30T05:11:51;8.80;;;5.30;;
78838;SDS011;68405;47.190;27.558;2024-01-30T05:14:22;7.60;;;4.20;;
78838;SDS011;68405;47.190;27.558;2024-01-30T05:16:54;7.60;;;4.20;;
78838;SDS011;68405;47.190;27.558;2024-01-30T05:19:26;6.70;;;3.90;;
78838;SDS011;68405;47.190;27.558;2024-01-30T05:21:58;8.70;;;4.90;;
78838;SDS011;68405;47.190;27.558;2024-01-30T05:24:39;9.00;;;4.70;;
78838;SDS011;68405;47.190;27.558;2024-01-30T05:27:11;7.30;;;3.90;;
78838;SDS011;68405;47.190;27.558;2024-01-30T05:29:43;6.30;;;4.30;;
78838;SDS011;68405;47.190;27.558;2024-01-30T05:32:15;8.90;;;4.90;;
78838;SDS011;68405;47.190;27.558;2024-01-30T05:34:46;7.60;;;5.40;;
78838;SDS011;68405;47.190;27.558;2024-01-30T05:37:18;8.60;;;4.90;;
78838;SDS011;68405;47.190;27.558;2024-01-30T05:39:50;7.20;;;4.80;;
78838;SDS011;68405;47.190;27.558;2024-01-30T05:42:22;8.20;;;4.40;;
78838;SDS011;68405;47.190;27.558;2024-01-30T05:44:54;6.30;;;3.60;;
78838;SDS011;68405;47.190;27.558;2024-01-30T05:47:26;7.10;;;4.10;;
78838;SDS011;68405;47.190;27.558;2024-01-30T05:49:58;5.90;;;3.60;;
78838;SDS011;68405;47.190;27.558;2024-01-30T05:52:36;8.10;;;4.30;;
78838;SDS011;68405;47.190;27.558;2024-01-30T05:55:09;5.80;;;3.30;;
78838;SDS011;68405;47.190;27.558;2024-01-30T05:57:41;9.20;;;5.00;;
78838;SDS011;68405;47.190;27.558;2024-01-30T06:00:14;6.60;;;4.40;;
78838;SDS011;68405;47.190;27.558;2024-01-30T06:02:48;6.30;;;3.30;;
78838;SDS011;68405;47.190;27.558;2024-01-30T06:05:20;8.80;;;4.80;;
78838;SDS011;68405;47.190;27.558;2024-01-30T06:07:54;8.30;;;5.30;;
78838;SDS011;68405;47.190;27.558;2024-01-30T06:10:26;9.00;;;5.30;;
78838;SDS011;68405;47.190;27.558;2024-01-30T06:12:58;11.20;;;5.80;;
78838;SDS011;68405;47.190;27.558;2024-01-30T06:15:30;10.90;;;6.60;;
78838;SDS011;68405;47.190;27.558;2024-01-30T06:18:02;14.80;;;7.90;;
78838;SDS011;68405;47.190;27.558;2024-01-30T06:20:36;15.20;;;8.30;;
78838;SDS011;68405;47.190;27.558;2024-01-30T06:23:11;15.50;;;8.80;;
78838;SDS011;68405;47.190;27.558;2024-01-30T06:25:47;11.30;;;7.80;;
78838;SDS011;68405;47.190;27.558;2024-01-30T06:28:19;11.10;;;7.40;;
78838;SDS011;68405;47.190;27.558;2024-01-30T06:30:50;10.60;;;7.70;;
78838;SDS011;68405;47.190;27.558;2024-01-30T06:33:22;12.20;;;7.60;;
78838;SDS011;68405;47.190;27.558;2024-01-30T06:35:54;9.10;;;7.70;;
78838;SDS011;68405;47.190;27.558;2024-01-30T06:38:25;10.90;;;8.60;;
78838;SDS011;68405;47.190;27.558;2024-01-30T06:41:00;10.20;;;8.60;;
78838;SDS011;68405;47.190;27.558;2024-01-30T06:43:34;12.10;;;10.00;;
78838;SDS011;68405;47.190;27.558;2024-01-30T06:46:06;12.40;;;10.00;;
78838;SDS011;68405;47.190;27.558;2024-01-30T06:48:38;11.50;;;9.80;;
78838;SDS011;68405;47.190;27.558;2024-01-30T06:51:13;14.00;;;11.00;;
78838;SDS011;68405;47.190;27.558;2024-01-30T06:53:45;12.50;;;10.10;;
78838;SDS011;68405;47.190;27.558;2024-01-30T06:56:21;15.80;;;11.90;;
78838;SDS011;68405;47.190;27.558;2024-01-30T06:58:56;11.30;;;9.80;;
78838;SDS011;68405;47.190;27.558;2024-01-30T07:01:29;9.00;;;8.00;;
78838;SDS011;68405;47.190;27.558;2024-01-30T07:04:01;9.10;;;7.50;;
78838;SDS011;68405;47.190;27.558;2024-01-30T07:06:34;9.00;;;8.10;;
78838;SDS011;68405;47.190;27.558;2024-01-30T07:09:11;7.70;;;6.90;;
78838;SDS011;68405;47.190;27.558;2024-01-30T07:11:44;8.80;;;7.50;;
78838;SDS011;68405;47.190;27.558;2024-01-30T07:14:16;7.30;;;6.60;;
78838;SDS011;68405;47.190;27.558;2024-01-30T07:16:48;6.60;;;6.00;;
78838;SDS011;68405;47.190;27.558;2024-01-30T07:19:19;8.70;;;6.30;;
78838;SDS011;68405;47.190;27.558;2024-01-30T07:21:52;7.30;;;6.60;;
78838;SDS011;68405;47.190;27.558;2024-01-30T07:24:24;6.90;;;6.30;;
78838;SDS011;68405;47.190;27.558;2024-01-30T07:26:56;7.50;;;6.30;;
78838;SDS011;68405;47.190;27.558;2024-01-30T07:29:29;9.10;;;6.30;;
78838;SDS011;68405;47.190;27.558;2024-01-30T07:32:01;7.40;;;6.70;;
78838;SDS011;68405;47.190;27.558;2024-01-30T07:34:33;8.50;;;7.20;;
78838;SDS011;68405;47.190;27.558;2024-01-30T07:37:07;10.00;;;8.60;;
78838;SDS011;68405;47.190;27.558;2024-01-30T07:39:40;10.50;;;9.40;;
78838;SDS011;68405;47.190;27.558;2024-01-30T07:42:15;10.70;;;9.40;;
78838;SDS011;68405;47.190;27.558;2024-01-30T07:44:47;12.10;;;10.40;;
78838;SDS011;68405;47.190;27.558;2024-01-30T07:47:19;11.10;;;10.00;;
78838;SDS011;68405;47.190;27.558;2024-01-30T07:49:52;12.70;;;10.90;;
78838;SDS011;68405;47.190;27.558;2024-01-30T07:52:24;14.30;;;10.40;;
78838;SDS011;68405;47.190;27.558;2024-01-30T07:54:56;11.80;;;10.40;;
78838;SDS011;68405;47.190;27.558;2024-01-30T07:57:30;11.80;;;10.60;;
78838;SDS011;68405;47.190;27.558;2024-01-30T08:00:02;12.20;;;11.10;;
78838;SDS011;68405;47.190;27.558;2024-01-30T08:02:37;13.40;;;12.10;;
78838;SDS011;68405;47.190;27.558;2024-01-30T08:05:09;13.00;;;11.60;;
78838;SDS011;68405;47.190;27.558;2024-01-30T08:07:43;13.80;;;11.90;;
78838;SDS011;68405;47.190;27.558;2024-01-30T08:10:15;12.50;;;11.30;;
78838;SDS011;68405;47.190;27.558;2024-01-30T08:12:47;12.50;;;11.20;;
78838;SDS011;68405;47.190;27.558;2024-01-30T08:15:19;13.20;;;12.00;;
78838;SDS011;68405;47.190;27.558;2024-01-30T08:17:51;13.60;;;12.30;;
78838;SDS011;68405;47.190;27.558;2024-01-30T08:20:28;14.00;;;12.70;;
78838;SDS011;68405;47.190;27.558;2024-01-30T08:23:00;14.60;;;13.00;;
78838;SDS011;68405;47.190;27.558;2024-01-30T08:28:03;14.70;;;13.10;;
78838;SDS011;68405;47.190;27.558;2024-01-30T08:30:39;15.00;;;13.50;;
78838;SDS011;68405;47.190;27.558;2024-01-30T08:33:12;16.80;;;15.30;;
78838;SDS011;68405;47.190;27.558;2024-01-30T08:35:44;14.30;;;12.90;;
78838;SDS011;68405;47.190;27.558;2024-01-30T08:38:17;15.10;;;13.60;;
78838;SDS011;68405;47.190;27.558;2024-01-30T08:40:55;15.30;;;13.90;;
78838;SDS011;68405;47.190;27.558;2024-01-30T08:43:27;14.80;;;13.40;;
78838;SDS011;68405;47.190;27.558;2024-01-30T08:46:00;14.00;;;12.60;;
78838;SDS011;68405;47.190;27.558;2024-01-30T08:48:33;15.80;;;14.20;;
78838;SDS011;68405;47.190;27.558;2024-01-30T08:51:08;15.40;;;13.90;;
78838;SDS011;68405;47.190;27.558;2024-01-30T08:53:41;15.80;;;14.20;;
78838;SDS011;68405;47.190;27.558;2024-01-30T08:56:13;15.10;;;13.60;;
78838;SDS011;68405;47.190;27.558;2024-01-30T08:58:46;14.00;;;12.70;;
78838;SDS011;68405;47.190;27.558;2024-01-30T09:01:18;15.70;;;14.10;;
78838;SDS011;68405;47.190;27.558;2024-01-30T09:03:50;14.90;;;13.50;;
78838;SDS011;68405;47.190;27.558;2024-01-30T09:06:22;15.70;;;14.20;;
78838;SDS011;68405;47.190;27.558;2024-01-30T09:09:00;15.40;;;13.90;;
78838;SDS011;68405;47.190;27.558;2024-01-30T09:11:34;15.00;;;13.60;;
78838;SDS011;68405;47.190;27.558;2024-01-30T09:14:07;16.70;;;15.10;;
78838;SDS011;68405;47.190;27.558;2024-01-30T09:16:41;14.90;;;13.40;;
78838;SDS011;68405;47.190;27.558;2024-01-30T09:19:15;16.20;;;14.10;;
78838;SDS011;68405;47.190;27.558;2024-01-30T09:21:47;14.90;;;13.50;;
78838;SDS011;68405;47.190;27.558;2024-01-30T09:24:19;11.90;;;10.70;;
78838;SDS011;68405;47.190;27.558;2024-01-30T09:26:51;11.40;;;10.30;;
78838;SDS011;68405;47.190;27.558;2024-01-30T09:29:27;9.90;;;8.20;;
78838;SDS011;68405;47.190;27.558;2024-01-30T09:31:59;9.10;;;7.90;;
78838;SDS011;68405;47.190;27.558;2024-01-30T09:34:33;7.90;;;7.10;;
78838;SDS011;68405;47.190;27.558;2024-01-30T09:37:08;9.00;;;8.00;;
78838;SDS011;68405;47.190;27.558;2024-01-30T09:39:41;7.50;;;6.80;;
78838;SDS011;68405;47.190;27.558;2024-01-30T09:42:15;7.90;;;7.10;;
78838;SDS011;68405;47.190;27.558;2024-01-30T09:44:52;7.30;;;6.60;;
78838;SDS011;68405;47.190;27.558;2024-01-30T09:47:27;9.60;;;7.10;;
78838;SDS011;68405;47.190;27.558;2024-01-30T09:50:00;8.70;;;7.40;;
78838;SDS011;68405;47.190;27.558;2024-01-30T09:55:21;8.30;;;7.20;;
78838;SDS011;68405;47.190;27.558;2024-01-30T09:57:54;7.70;;;7.00;;
78838;SDS011;68405;47.190;27.558;2024-01-30T10:00:27;6.10;;;5.50;;
78838;SDS011;68405;47.190;27.558;2024-01-30T10:02:59;6.80;;;6.20;;
78838;SDS011;68405;47.190;27.558;2024-01-30T10:05:37;6.90;;;6.30;;
78838;SDS011;68405;47.190;27.558;2024-01-30T10:08:20;7.40;;;6.00;;
78838;SDS011;68405;47.190;27.558;2024-01-30T10:10:52;6.10;;;5.50;;
78838;SDS011;68405;47.190;27.558;2024-01-30T10:13:27;5.20;;;4.70;;
78838;SDS011;68405;47.190;27.558;2024-01-30T10:15:59;5.20;;;4.70;;
78838;SDS011;68405;47.190;27.558;2024-01-30T10:18:37;6.00;;;5.40;;
78838;SDS011;68405;47.190;27.558;2024-01-30T10:21:12;6.90;;;6.10;;
78838;SDS011;68405;47.190;27.558;2024-01-30T10:23:44;5.60;;;5.10;;
78838;SDS011;68405;47.190;27.558;2024-01-30T10:26:17;6.60;;;5.90;;
78838;SDS011;68405;47.190;27.558;2024-01-30T10:28:50;6.20;;;5.60;;
78838;SDS011;68405;47.190;27.558;2024-01-30T10:31:25;6.00;;;4.10;;
78838;SDS011;68405;47.190;27.558;2024-01-30T10:34:00;5.40;;;4.90;;
78838;SDS011;68405;47.190;27.558;2024-01-30T10:36:37;7.40;;;5.70;;
78838;SDS011;68405;47.190;27.558;2024-01-30T10:39:15;8.10;;;5.90;;
78838;SDS011;68405;47.190;27.558;2024-01-30T10:41:50;6.50;;;5.80;;
78838;SDS011;68405;47.190;27.558;2024-01-30T10:44:27;5.10;;;4.00;;
78838;SDS011;68405;47.190;27.558;2024-01-30T10:47:05;5.00;;;4.50;;
78838;SDS011;68405;47.190;27.558;2024-01-30T10:49:42;4.00;;;3.50;;
78838;SDS011;68405;47.190;27.558;2024-01-30T10:52:16;4.50;;;3.90;;
78838;SDS011;68405;47.190;27.558;2024-01-30T10:57:19;4.80;;;4.20;;
78838;SDS011;68405;47.190;27.558;2024-01-30T10:59:54;5.00;;;4.10;;
78838;SDS011;68405;47.190;27.558;2024-01-30T11:02:33;5.80;;;5.00;;
78838;SDS011;68405;47.190;27.558;2024-01-30T11:05:08;4.70;;;3.80;;
78838;SDS011;68405;47.190;27.558;2024-01-30T11:07:41;5.70;;;4.50;;
78838;SDS011;68405;47.190;27.558;2024-01-30T11:10:13;4.70;;;4.20;;
78838;SDS011;68405;47.190;27.558;2024-01-30T11:12:45;4.70;;;4.10;;
78838;SDS011;68405;47.190;27.558;2024-01-30T11:15:19;4.90;;;3.80;;
78838;SDS011;68405;47.190;27.558;2024-01-30T11:17:54;4.60;;;4.00;;
78838;SDS011;68405;47.190;27.558;2024-01-30T11:20:26;5.50;;;4.20;;
78838;SDS011;68405;47.190;27.558;2024-01-30T11:22:59;4.80;;;4.20;;
78838;SDS011;68405;47.190;27.558;2024-01-30T11:25:35;4.90;;;4.40;;
78838;SDS011;68405;47.190;27.558;2024-01-30T11:28:12;4.70;;;3.60;;
78838;SDS011;68405;47.190;27.558;2024-01-30T11:30:45;7.30;;;5.40;;
78838;SDS011;68405;47.190;27.558;2024-01-30T11:33:29;6.00;;;4.10;;
78838;SDS011;68405;47.190;27.558;2024-01-30T11:36:07;5.60;;;4.20;;
78838;SDS011;68405;47.190;27.558;2024-01-30T11:38:42;5.90;;;4.30;;
78838;SDS011;68405;47.190;27.558;2024-01-30T11:41:15;6.20;;;4.70;;
78838;SDS011;68405;47.190;27.558;2024-01-30T11:43:52;4.80;;;3.90;;
78838;SDS011;68405;47.190;27.558;2024-01-30T11:46:26;5.20;;;4.40;;
78838;SDS011;68405;47.190;27.558;2024-01-30T11:49:01;5.40;;;4.60;;
78838;SDS011;68405;47.190;27.558;2024-01-30T11:51:33;6.10;;;4.20;;
78838;SDS011;68405;47.190;27.558;2024-01-30T11:54:05;7.00;;;4.70;;
78838;SDS011;68405;47.190;27.558;2024-01-30T11:56:38;6.10;;;4.90;;
78838;SDS011;68405;47.190;27.558;2024-01-30T11:59:11;6.20;;;4.80;;
78838;SDS011;68405;47.190;27.558;2024-01-30T12:01:43;6.20;;;4.80;;
78838;SDS011;68405;47.190;27.558;2024-01-30T12:04:15;5.50;;;4.30;;
78838;SDS011;68405;47.190;27.558;2024-01-30T12:06:52;4.80;;;3.70;;
78838;SDS011;68405;47.190;27.558;2024-01-30T12:09:24;5.70;;;4.60;;
78838;SDS011;68405;47.190;27.558;2024-01-30T12:11:57;7.00;;;4.70;;
78838;SDS011;68405;47.190;27.558;2024-01-30T12:14:30;8.80;;;6.60;;
78838;SDS011;68405;47.190;27.558;2024-01-30T12:17:02;6.70;;;5.10;;
78838;SDS011;68405;47.190;27.558;2024-01-30T12:19:35;5.80;;;4.60;;
78838;SDS011;68405;47.190;27.558;2024-01-30T12:22:08;6.70;;;4.50;;
78838;SDS011;68405;47.190;27.558;2024-01-30T12:24:44;4.80;;;4.00;;
78838;SDS011;68405;47.190;27.558;2024-01-30T12:27:17;6.10;;;5.10;;
78838;SDS011;68405;47.190;27.558;2024-01-30T12:29:49;7.10;;;5.50;;
78838;SDS011;68405;47.190;27.558;2024-01-30T12:32:29;9.50;;;5.40;;
78838;SDS011;68405;47.190;27.558;2024-01-30T12:35:12;6.10;;;4.30;;
78838;SDS011;68405;47.190;27.558;2024-01-30T12:40:40;5.60;;;4.70;;
78838;SDS011;68405;47.190;27.558;2024-01-30T12:43:13;6.20;;;4.70;;
78838;SDS011;68405;47.190;27.558;2024-01-30T12:45:45;6.30;;;4.60;;
78838;SDS011;68405;47.190;27.558;2024-01-30T12:48:19;9.20;;;5.60;;
78838;SDS011;68405;47.190;27.558;2024-01-30T12:50:53;9.80;;;7.00;;
78838;SDS011;68405;47.190;27.558;2024-01-30T12:53:27;6.30;;;5.00;;
78838;SDS011;68405;47.190;27.558;2024-01-30T12:56:00;8.00;;;5.50;;
78838;SDS011;68405;47.190;27.558;2024-01-30T12:58:31;8.00;;;5.40;;
78838;SDS011;68405;47.190;27.558;2024-01-30T13:01:03;8.70;;;5.40;;
78838;SDS011;68405;47.190;27.558;2024-01-30T13:03:38;7.50;;;5.60;;
78838;SDS011;68405;47.190;27.558;2024-01-30T13:06:10;8.90;;;5.40;;
78838;SDS011;68405;47.190;27.558;2024-01-30T13:08:42;7.60;;;4.90;;
78838;SDS011;68405;47.190;27.558;2024-01-30T13:11:13;7.40;;;5.50;;
78838;SDS011;68405;47.190;27.558;2024-01-30T13:13:45;7.00;;;4.10;;
78838;SDS011;68405;47.190;27.558;2024-01-30T13:16:17;9.90;;;6.00;;
78838;SDS011;68405;47.190;27.558;2024-01-30T13:18:48;7.80;;;5.80;;
78838;SDS011;68405;47.190;27.558;2024-01-30T13:21:20;8.30;;;5.50;;
78838;SDS011;68405;47.190;27.558;2024-01-30T13:23:52;8.50;;;5.70;;
78838;SDS011;68405;47.190;27.558;2024-01-30T13:26:23;8.00;;;5.60;;
78838;SDS011;68405;47.190;27.558;2024-01-30T13:28:55;8.50;;;5.80;;
78838;SDS011;68405;47.190;27.558;2024-01-30T13:31:27;8.80;;;5.40;;
78838;SDS011;68405;47.190;27.558;2024-01-30T13:33:59;9.90;;;5.70;;
78838;SDS011;68405;47.190;27.558;2024-01-30T13:36:31;7.40;;;5.60;;
78838;SDS011;68405;47.190;27.558;2024-01-30T13:39:03;10.10;;;6.10;;
78838;SDS011;68405;47.190;27.558;2024-01-30T13:41:41;9.00;;;6.00;;
78838;SDS011;68405;47.190;27.558;2024-01-30T13:44:13;12.00;;;6.50;;
78838;SDS011;68405;47.190;27.558;2024-01-30T13:46:46;8.00;;;5.30;;
78838;SDS011;68405;47.190;27.558;2024-01-30T13:49:18;9.60;;;6.10;;
78838;SDS011;68405;47.190;27.558;2024-01-30T13:51:50;8.80;;;5.40;;
78838;SDS011;68405;47.190;27.558;2024-01-30T13:54:22;10.10;;;6.20;;
78838;SDS011;68405;47.190;27.558;2024-01-30T13:56:57;11.40;;;5.70;;
78838;SDS011;68405;47.190;27.558;2024-01-30T13:59:29;12.30;;;6.70;;
78838;SDS011;68405;47.190;27.558;2024-01-30T14:02:01;10.80;;;6.30;;
78838;SDS011;68405;47.190;27.558;2024-01-30T14:04:33;10.20;;;6.30;;
78838;SDS011;68405;47.190;27.558;2024-01-30T14:07:06;9.00;;;5.10;;
78838;SDS011;68405;47.190;27.558;2024-01-30T14:09:37;9.50;;;6.40;;
78838;SDS011;68405;47.190;27.558;2024-01-30T14:12:09;9.40;;;6.30;;
78838;SDS011;68405;47.190;27.558;2024-01-30T14:14:44;10.00;;;6.50;;
78838;SDS011;68405;47.190;27.558;2024-01-30T14:17:16;14.90;;;8.50;;
78838;SDS011;68405;47.190;27.558;2024-01-30T14:19:48;11.60;;;7.00;;
78838;SDS011;68405;47.190;27.558;2024-01-30T14:22:20;14.10;;;7.60;;
78838;SDS011;68405;47.190;27.558;2024-01-30T14:24:51;9.50;;;6.30;;
78838;SDS011;68405;47.190;27.558;2024-01-30T14:27:24;10.90;;;6.80;;
78838;SDS011;68405;47.190;27.558;2024-01-30T14:29:57;11.40;;;6.00;;
78838;SDS011;68405;47.190;27.558;2024-01-30T14:32:31;14.40;;;7.10;;
78838;SDS011;68405;47.190;27.558;2024-01-30T14:35:04;14.70;;;8.40;;
78838;SDS011;68405;47.190;27.558;2024-01-30T14:37:39;10.90;;;5.90;;
78838;SDS011;68405;47.190;27.558;2024-01-30T14:40:11;12.20;;;6.60;;
78838;SDS011;68405;47.190;27.558;2024-01-30T14:42:43;9.70;;;5.20;;
78838;SDS011;68405;47.190;27.558;2024-01-30T14:45:16;13.40;;;7.10;;
78838;SDS011;68405;47.190;27.558;2024-01-30T14:47:51;12.90;;;7.90;;
78838;SDS011;68405;47.190;27.558;2024-01-30T14:50:24;10.50;;;6.50;;
78838;SDS011;68405;47.190;27.558;2024-01-30T14:52:56;14.10;;;8.00;;
78838;SDS011;68405;47.190;27.558;2024-01-30T14:55:37;12.90;;;7.00;;
78838;SDS011;68405;47.190;27.558;2024-01-30T14:58:09;10.60;;;7.40;;
78838;SDS011;68405;47.190;27.558;2024-01-30T15:00:42;12.80;;;6.90;;
78838;SDS011;68405;47.190;27.558;2024-01-30T15:03:14;15.30;;;7.50;;
78838;SDS011;68405;47.190;27.558;2024-01-30T15:05:47;14.80;;;7.70;;
78838;SDS011;68405;47.190;27.558;2024-01-30T15:08:19;9.90;;;6.20;;
78838;SDS011;68405;47.190;27.558;2024-01-30T15:10:50;14.30;;;8.10;;
78838;SDS011;68405;47.190;27.558;2024-01-30T15:13:22;15.90;;;8.90;;